createdAt,value
2018-10-18T00:01:25.274Z,100.00
2018-10-18T00:03:54.418Z,100.00
2018-10-18T00:06:23.580Z,100.00
2018-10-18T00:08:52.751Z,100.00
2018-10-18T00:11:21.968Z,100.00
2018-10-18T00:13:51.134Z,100.00
2018-10-18T00:16:20.352Z,100.00
2018-10-18T00:18:49.544Z,100.00
2018-10-18T00:21:18.721Z,100.00
2018-10-18T00:23:47.891Z,100.00
2018-10-18T00:26:17.106Z,100.00
2018-10-18T00:28:46.225Z,100.00
2018-10-18T00:31:15.382Z,100.00
2018-10-18T00:33:44.614Z,100.00
2018-10-18T00:36:13.795Z,100.00
2018-10-18T00:38:42.920Z,100.00
2018-10-18T00:41:12.072Z,100.00
2018-10-18T00:43:41.213Z,100.00
2018-10-18T00:46:10.385Z,100.00
2018-10-18T00:48:39.688Z,100.00
2018-10-18T00:51:09.308Z,100.00
2018-10-18T00:53:38.481Z,100.00
2018-10-18T00:56:07.749Z,100.00
2018-10-18T00:58:36.800Z,100.00
2018-10-18T01:01:06.380Z,100.00
2018-10-18T01:03:35.579Z,100.00
2018-10-18T01:06:04.927Z,100.00
2018-10-18T01:08:34.153Z,100.00
2018-10-18T01:11:03.392Z,100.00
2018-10-18T01:13:32.566Z,100.00
2018-10-18T01:16:01.757Z,100.00
2018-10-18T01:18:30.957Z,100.00
2018-10-18T01:21:00.129Z,100.00
2018-10-18T01:23:29.476Z,100.00
2018-10-18T01:25:58.627Z,100.00
2018-10-18T01:28:27.910Z,100.00
2018-10-18T01:30:57.061Z,100.00
2018-10-18T01:33:26.246Z,100.00
2018-10-18T01:35:55.437Z,100.00
2018-10-18T01:38:24.577Z,100.00
2018-10-18T01:40:53.728Z,100.00
2018-10-18T01:43:22.867Z,100.00
2018-10-18T01:45:52.061Z,100.00
2018-10-18T01:48:21.213Z,100.00
2018-10-18T01:50:50.374Z,100.00
2018-10-18T01:53:19.542Z,100.00
2018-10-18T01:55:48.705Z,100.00
2018-10-18T01:58:18.353Z,100.00
2018-10-18T02:00:47.669Z,100.00
2018-10-18T02:03:16.855Z,100.00
2018-10-18T02:05:46.034Z,100.00
2018-10-18T02:08:15.218Z,100.00
2018-10-18T02:10:44.389Z,100.00
2018-10-18T02:13:13.537Z,100.00
2018-10-18T02:15:42.830Z,100.00
2018-10-18T02:18:12.112Z,100.00
2018-10-18T02:20:41.169Z,100.00
2018-10-18T02:23:10.403Z,100.00
2018-10-18T02:25:39.534Z,100.00
2018-10-18T02:28:08.702Z,100.00
2018-10-18T02:30:37.931Z,100.00
2018-10-18T02:33:07.281Z,100.00
2018-10-18T02:35:36.475Z,100.00
2018-10-18T02:38:05.721Z,100.00
2018-10-18T02:40:35.073Z,100.00
2018-10-18T02:43:04.614Z,100.00
2018-10-18T02:45:33.774Z,100.00
2018-10-18T02:48:03.051Z,100.00
2018-10-18T02:50:32.131Z,100.00
2018-10-18T02:53:01.308Z,100.00
2018-10-18T02:55:30.426Z,100.00
2018-10-18T02:57:59.573Z,100.00
2018-10-18T03:00:28.764Z,100.00
2018-10-18T03:02:57.900Z,100.00
2018-10-18T03:05:27.040Z,100.00
2018-10-18T03:07:56.259Z,100.00
2018-10-18T03:10:25.461Z,100.00
2018-10-18T03:12:54.578Z,100.00
2018-10-18T03:15:23.761Z,100.00
2018-10-18T03:17:52.909Z,100.00
2018-10-18T03:20:22.086Z,100.00
2018-10-18T03:22:51.294Z,100.00
2018-10-18T03:25:20.427Z,100.00
2018-10-18T03:27:49.587Z,100.00
2018-10-18T03:30:18.861Z,100.00
2018-10-18T03:32:47.920Z,100.00
2018-10-18T03:35:17.056Z,100.00
2018-10-18T03:37:46.215Z,100.00
2018-10-18T03:40:17.040Z,100.00
2018-10-18T03:42:46.261Z,100.00
2018-10-18T03:45:15.694Z,100.00
2018-10-18T03:47:45.333Z,100.00
2018-10-18T03:50:14.534Z,100.00
2018-10-18T03:52:43.813Z,100.00
2018-10-18T03:55:13.555Z,100.00
2018-10-18T03:57:43.084Z,100.00
2018-10-18T04:00:12.402Z,100.00
2018-10-18T04:02:41.532Z,100.00
2018-10-18T04:05:11.039Z,100.00
2018-10-18T04:07:40.262Z,100.00
2018-10-18T04:10:09.419Z,100.00
2018-10-18T04:12:38.637Z,100.00
2018-10-18T04:15:08.409Z,100.00
2018-10-18T04:17:37.601Z,100.00
2018-10-18T04:20:07.552Z,100.00
2018-10-18T04:22:36.739Z,100.00
2018-10-18T04:25:06.920Z,100.00
2018-10-18T04:27:36.057Z,100.00
2018-10-18T04:30:06.069Z,100.00
2018-10-18T04:32:35.179Z,100.00
2018-10-18T04:35:04.731Z,100.00
2018-10-18T04:37:34.020Z,100.00
2018-10-18T04:40:03.130Z,100.00
2018-10-18T04:42:32.291Z,100.00
2018-10-18T04:45:01.440Z,100.00
2018-10-18T04:47:34.237Z,100.00
2018-10-18T04:50:03.419Z,100.00
2018-10-18T04:52:32.620Z,100.00
2018-10-18T04:55:01.900Z,100.00
2018-10-18T04:57:31.045Z,100.00
2018-10-18T05:00:00.151Z,100.00
2018-10-18T05:02:29.373Z,100.00
2018-10-18T05:05:09.810Z,100.00
2018-10-18T05:07:38.998Z,100.00
2018-10-18T05:10:08.170Z,100.00
2018-10-18T05:12:37.387Z,100.00
2018-10-18T05:15:07.885Z,100.00
2018-10-18T05:17:37.775Z,100.00
2018-10-18T05:20:07.165Z,100.00
2018-10-18T05:22:36.302Z,100.00
2018-10-18T05:25:05.989Z,100.00
2018-10-18T05:27:35.117Z,100.00
2018-10-18T05:30:04.739Z,100.00
2018-10-18T05:32:33.885Z,100.00
2018-10-18T05:35:05.238Z,100.00
2018-10-18T05:37:34.557Z,100.00
2018-10-18T05:40:03.644Z,100.00
2018-10-18T05:42:32.781Z,100.00
2018-10-18T05:45:01.959Z,100.00
2018-10-18T05:47:31.084Z,100.00
2018-10-18T05:50:00.323Z,100.00
2018-10-18T05:52:29.489Z,100.00
2018-10-18T05:54:58.725Z,100.00
2018-10-18T05:57:27.948Z,100.00
2018-10-18T05:59:57.215Z,100.00
2018-10-18T06:02:26.407Z,100.00
2018-10-18T06:04:55.635Z,100.00
2018-10-18T06:07:24.868Z,100.00
2018-10-18T06:09:54.160Z,100.00
2018-10-18T06:12:23.337Z,100.00
2018-10-18T06:14:52.594Z,100.00
2018-10-18T06:17:22.353Z,100.00
2018-10-18T06:19:51.583Z,100.00
2018-10-18T06:22:20.940Z,100.00
2018-10-18T06:24:50.219Z,100.00
2018-10-18T06:27:19.493Z,100.00
2018-10-18T06:29:48.695Z,100.00
2018-10-18T06:32:17.908Z,100.00
2018-10-18T06:34:47.147Z,100.00
2018-10-18T06:37:16.460Z,100.00
2018-10-18T06:39:45.593Z,100.00
2018-10-18T06:42:14.828Z,100.00
2018-10-18T06:44:44.374Z,100.00
2018-10-18T06:47:13.675Z,100.00
2018-10-18T06:49:42.951Z,100.00
2018-10-18T06:52:12.219Z,100.00
2018-10-18T06:54:41.464Z,100.00
2018-10-18T06:57:10.722Z,100.00
2018-10-18T06:59:39.932Z,100.00
2018-10-18T07:02:10.758Z,100.00
2018-10-18T07:04:40.015Z,100.00
2018-10-18T07:07:09.313Z,100.00
2018-10-18T07:09:38.585Z,100.00
2018-10-18T07:12:08.115Z,100.00
2018-10-18T07:14:37.420Z,100.00
2018-10-18T07:17:06.811Z,100.00
2018-10-18T07:19:36.363Z,100.00
2018-10-18T07:22:05.652Z,100.00
2018-10-18T07:24:34.878Z,100.00
2018-10-18T07:27:04.197Z,100.00
2018-10-18T07:29:33.407Z,100.00
2018-10-18T07:32:02.633Z,100.00
2018-10-18T07:34:31.856Z,100.00
2018-10-18T07:37:01.136Z,100.00
2018-10-18T07:39:30.326Z,100.00
2018-10-18T07:41:59.658Z,100.00
2018-10-18T07:44:28.879Z,100.00
2018-10-18T07:46:58.279Z,100.00
2018-10-18T07:49:27.352Z,100.00
2018-10-18T07:51:56.670Z,100.00
2018-10-18T07:54:25.886Z,100.00
2018-10-18T07:56:55.111Z,100.00
2018-10-18T07:59:24.317Z,100.00
2018-10-18T08:01:53.575Z,100.00
2018-10-18T08:04:22.866Z,100.00
2018-10-18T08:06:52.076Z,100.00
2018-10-18T08:09:21.295Z,100.00
2018-10-18T08:11:50.550Z,100.00
2018-10-18T08:14:19.778Z,100.00
2018-10-18T08:16:49.011Z,100.00
2018-10-18T08:19:18.358Z,100.00
2018-10-18T08:21:47.478Z,100.00
2018-10-18T08:24:16.691Z,100.00
2018-10-18T08:26:45.942Z,99.07
2018-10-18T08:29:15.146Z,98.00
2018-10-18T08:31:44.350Z,97.39
2018-10-18T08:34:13.585Z,97.95
2018-10-18T08:36:42.800Z,97.48
2018-10-18T08:39:12.463Z,98.18
2018-10-18T08:41:41.944Z,98.14
2018-10-18T08:44:11.292Z,97.33
2018-10-18T08:46:40.512Z,97.38
2018-10-18T08:49:09.800Z,95.86
2018-10-18T08:51:39.017Z,95.14
2018-10-18T08:54:08.318Z,94.97
2018-10-18T08:56:37.599Z,94.21
2018-10-18T08:59:06.877Z,92.33
2018-10-18T09:01:36.131Z,90.76
2018-10-18T09:04:05.491Z,90.42
2018-10-18T09:06:34.698Z,90.74
2018-10-18T09:09:07.102Z,88.67
2018-10-18T09:11:36.385Z,88.43
2018-10-18T09:14:07.206Z,87.38
2018-10-18T09:16:36.448Z,87.74
2018-10-18T09:19:07.176Z,88.37
2018-10-18T09:21:36.392Z,88.97
2018-10-18T09:24:06.072Z,89.38
2018-10-18T09:26:35.334Z,87.34
2018-10-18T09:29:04.639Z,87.16
2018-10-18T09:31:33.892Z,85.79
2018-10-18T09:34:03.125Z,84.77
2018-10-18T09:36:32.529Z,84.19
2018-10-18T09:39:01.796Z,82.94
2018-10-18T09:41:31.096Z,83.98
2018-10-18T09:44:04.514Z,81.83
2018-10-18T09:46:35.040Z,82.01
2018-10-18T09:49:04.752Z,82.19
2018-10-18T09:51:34.076Z,82.16
2018-10-18T09:54:03.943Z,80.05
2018-10-18T09:56:33.626Z,80.08
2018-10-18T09:59:03.280Z,79.99
2018-10-18T10:01:37.743Z,79.64
2018-10-18T10:04:07.018Z,80.33
2018-10-18T10:06:36.394Z,78.76
2018-10-18T10:09:07.662Z,79.47
2018-10-18T10:11:36.940Z,78.69
2018-10-18T10:14:06.275Z,78.67
2018-10-18T10:16:35.498Z,79.88
2018-10-18T10:19:04.979Z,79.05
2018-10-18T10:21:34.191Z,78.13
2018-10-18T10:24:03.389Z,76.83
2018-10-18T10:26:32.644Z,77.81
2018-10-18T10:29:01.871Z,77.42
2018-10-18T10:31:31.218Z,75.06
2018-10-18T10:34:00.452Z,76.15
2018-10-18T10:36:29.753Z,74.58
2018-10-18T10:38:59.018Z,75.83
2018-10-18T10:41:28.174Z,74.10
2018-10-18T10:43:57.387Z,73.96
2018-10-18T10:46:27.191Z,74.50
2018-10-18T10:48:56.477Z,73.84
2018-10-18T10:51:25.714Z,73.36
2018-10-18T10:53:55.010Z,72.83
2018-10-18T10:56:24.203Z,72.75
2018-10-18T10:58:54.312Z,73.52
2018-10-18T11:01:25.698Z,71.83
2018-10-18T11:03:56.642Z,72.07
2018-10-18T11:06:26.342Z,72.70
2018-10-18T11:08:55.610Z,71.92
2018-10-18T11:11:24.906Z,71.62
2018-10-18T11:13:54.191Z,71.51
2018-10-18T11:16:27.055Z,69.76
2018-10-18T11:18:56.496Z,70.62
2018-10-18T11:21:26.648Z,70.50
2018-10-18T11:23:55.882Z,71.33
2018-10-18T11:26:25.113Z,71.93
2018-10-18T11:28:54.389Z,70.99
2018-10-18T11:31:23.602Z,70.31
2018-10-18T11:33:52.851Z,69.91
2018-10-18T11:36:22.073Z,69.64
2018-10-18T11:38:51.343Z,69.80
2018-10-18T11:41:28.043Z,69.90
2018-10-18T11:44:04.777Z,68.86
2018-10-18T11:46:41.473Z,68.35
2018-10-18T11:49:18.207Z,69.04
2018-10-18T11:51:55.252Z,68.42
2018-10-18T11:54:31.860Z,67.20
2018-10-18T11:57:09.790Z,67.85
2018-10-18T11:59:39.164Z,67.66
2018-10-18T12:02:08.530Z,68.35
2018-10-18T12:04:37.645Z,68.00
2018-10-18T12:07:06.957Z,68.05
2018-10-18T12:09:36.193Z,67.67
2018-10-18T12:12:05.459Z,66.53
2018-10-18T12:14:34.669Z,66.17
2018-10-18T12:17:03.945Z,67.48
2018-10-18T12:19:33.095Z,67.06
2018-10-18T12:22:02.324Z,68.91
2018-10-18T12:24:31.648Z,68.45
2018-10-18T12:27:00.894Z,67.08
2018-10-18T12:29:30.079Z,66.41
2018-10-18T12:31:59.347Z,66.52
2018-10-18T12:34:28.529Z,66.06
2018-10-18T12:36:57.744Z,67.54
2018-10-18T12:39:27.040Z,65.60
2018-10-18T12:41:56.331Z,65.08
2018-10-18T12:44:29.111Z,66.35
2018-10-18T12:46:58.345Z,65.52
2018-10-18T12:49:27.604Z,65.29
2018-10-18T12:51:56.858Z,66.31
2018-10-18T12:54:26.092Z,65.53
2018-10-18T12:56:55.381Z,64.63
2018-10-18T12:59:24.591Z,64.85
2018-10-18T13:01:53.863Z,65.86
2018-10-18T13:04:23.210Z,65.54
2018-10-18T13:06:52.436Z,64.96
2018-10-18T13:09:21.725Z,66.12
2018-10-18T13:11:50.902Z,65.62
2018-10-18T13:14:20.130Z,65.98
2018-10-18T13:16:49.334Z,66.10
2018-10-18T13:19:18.606Z,65.67
2018-10-18T13:21:47.910Z,66.31
2018-10-18T13:24:17.210Z,66.43
2018-10-18T13:26:46.372Z,65.67
2018-10-18T13:29:15.742Z,66.88
2018-10-18T13:31:44.933Z,65.50
2018-10-18T13:34:14.251Z,65.78
2018-10-18T13:36:43.410Z,66.28
2018-10-18T13:39:15.197Z,66.52
2018-10-18T13:41:44.359Z,65.81
2018-10-18T13:44:13.652Z,65.53
2018-10-18T13:46:42.896Z,66.95
2018-10-18T13:49:12.142Z,66.85
2018-10-18T13:51:41.430Z,66.37
2018-10-18T13:54:10.683Z,66.69
2018-10-18T13:56:39.891Z,67.64
2018-10-18T13:59:20.118Z,67.01
2018-10-18T14:01:49.323Z,67.93
2018-10-18T14:04:18.555Z,67.88
2018-10-18T14:06:48.379Z,67.42
2018-10-18T14:09:17.625Z,68.04
2018-10-18T14:11:46.831Z,67.12
2018-10-18T14:14:16.144Z,67.84
2018-10-18T14:16:45.381Z,68.00
2018-10-18T14:19:14.579Z,69.70
2018-10-18T14:21:43.888Z,68.39
2018-10-18T14:24:13.121Z,68.57
2018-10-18T14:26:42.522Z,68.58
2018-10-18T14:29:11.892Z,68.92
2018-10-18T14:31:41.033Z,69.47
2018-10-18T14:34:10.251Z,69.07
2018-10-18T14:36:39.471Z,69.06
2018-10-18T14:39:09.429Z,69.32
2018-10-18T14:41:38.906Z,68.70
2018-10-18T14:44:08.134Z,69.10
2018-10-18T14:46:37.346Z,69.78
2018-10-18T14:49:07.006Z,70.01
2018-10-18T14:51:36.254Z,70.16
2018-10-18T14:54:05.543Z,70.47
2018-10-18T14:56:34.762Z,70.81
2018-10-18T14:59:04.050Z,70.97
2018-10-18T15:01:33.310Z,70.85
2018-10-18T15:04:02.554Z,71.35
2018-10-18T15:06:31.821Z,71.48
2018-10-18T15:09:01.047Z,71.18
2018-10-18T15:11:30.285Z,71.19
2018-10-18T15:13:59.509Z,71.49
2018-10-18T15:16:28.768Z,71.75
2018-10-18T15:18:57.972Z,71.91
2018-10-18T15:21:27.711Z,71.99
2018-10-18T15:23:57.045Z,72.43
2018-10-18T15:26:26.351Z,73.20
2018-10-18T15:28:55.511Z,73.42
2018-10-18T15:31:24.789Z,74.58
2018-10-18T15:33:53.994Z,75.17
2018-10-18T15:36:23.213Z,75.70
2018-10-18T15:38:52.559Z,76.28
2018-10-18T15:41:21.666Z,76.17
2018-10-18T15:43:50.974Z,76.96
2018-10-18T15:46:20.623Z,77.71
2018-10-18T15:48:49.829Z,78.02
2018-10-18T15:51:19.083Z,78.99
2018-10-18T15:53:48.275Z,79.85
2018-10-18T15:56:17.642Z,79.58
2018-10-18T15:58:46.880Z,80.52
2018-10-18T16:01:17.352Z,80.91
2018-10-18T16:03:47.620Z,83.06
2018-10-18T16:06:16.908Z,82.78
2018-10-18T16:08:46.203Z,83.81
2018-10-18T16:11:15.340Z,84.10
2018-10-18T16:13:44.565Z,84.83
2018-10-18T16:16:13.797Z,84.57
2018-10-18T16:18:43.022Z,83.84
2018-10-18T16:21:12.306Z,84.39
2018-10-18T16:23:41.558Z,84.72
2018-10-18T16:26:10.946Z,85.20
2018-10-18T16:28:39.993Z,85.69
2018-10-18T16:31:09.358Z,87.12
2018-10-18T16:33:39.624Z,88.80
2018-10-18T16:36:08.835Z,90.11
2018-10-18T16:38:38.091Z,90.83
2018-10-18T16:41:07.801Z,91.00
2018-10-18T16:43:36.758Z,91.35
2018-10-18T16:46:06.469Z,91.20
2018-10-18T16:48:35.789Z,91.09
2018-10-18T16:51:05.193Z,90.69
2018-10-18T16:53:34.537Z,90.46
2018-10-18T16:56:04.105Z,90.54
2018-10-18T16:58:33.302Z,90.61
2018-10-18T17:01:02.651Z,91.84
2018-10-18T17:03:31.855Z,91.67
2018-10-18T17:06:01.162Z,92.00
2018-10-18T17:08:30.326Z,91.97
2018-10-18T17:10:59.554Z,92.00
2018-10-18T17:13:28.827Z,92.20
2018-10-18T17:15:58.458Z,93.76
2018-10-18T17:18:27.693Z,94.41
2018-10-18T17:20:56.959Z,94.92
2018-10-18T17:23:26.175Z,95.35
2018-10-18T17:25:55.412Z,95.44
2018-10-18T17:28:25.043Z,94.51
2018-10-18T17:30:54.307Z,94.84
2018-10-18T17:33:23.512Z,94.99
2018-10-18T17:35:52.898Z,94.94
2018-10-18T17:38:22.645Z,94.45
2018-10-18T17:40:51.931Z,94.51
2018-10-18T17:43:21.227Z,94.65
2018-10-18T17:45:50.454Z,94.82
2018-10-18T17:48:19.665Z,94.93
2018-10-18T17:50:48.954Z,94.94
2018-10-18T17:53:18.163Z,95.11
2018-10-18T17:55:47.396Z,94.82
2018-10-18T17:58:16.736Z,94.80
2018-10-18T18:00:45.849Z,94.88
2018-10-18T18:03:15.929Z,95.35
2018-10-18T18:05:45.224Z,95.41
2018-10-18T18:08:14.730Z,95.71
2018-10-18T18:10:45.253Z,95.82
2018-10-18T18:13:15.242Z,95.99
2018-10-18T18:15:44.512Z,95.97
2018-10-18T18:18:13.787Z,96.02
2018-10-18T18:20:43.109Z,96.20
2018-10-18T18:23:12.350Z,96.05
2018-10-18T18:25:41.573Z,96.11
2018-10-18T18:28:10.759Z,96.44
2018-10-18T18:30:39.926Z,96.10
2018-10-18T18:33:09.255Z,96.47
2018-10-18T18:35:38.415Z,96.87
2018-10-18T18:38:07.572Z,97.30
2018-10-18T18:40:37.919Z,97.43
2018-10-18T18:43:07.324Z,98.33
2018-10-18T18:45:37.075Z,98.58
2018-10-18T18:48:06.407Z,98.56
2018-10-18T18:50:35.603Z,98.55
2018-10-18T18:53:05.019Z,98.50
2018-10-18T18:55:34.192Z,99.41
2018-10-18T18:58:03.362Z,100.00
2018-10-18T19:00:32.534Z,100.00
2018-10-18T19:03:01.744Z,100.00
2018-10-18T19:05:31.133Z,100.00
2018-10-18T19:08:00.282Z,100.00
2018-10-18T19:10:29.449Z,99.93
2018-10-18T19:12:58.678Z,100.00
2018-10-18T19:15:27.930Z,99.99
2018-10-18T19:17:57.124Z,99.99
2018-10-18T19:20:26.407Z,99.91
2018-10-18T19:22:55.633Z,99.33
2018-10-18T19:25:25.062Z,99.92
2018-10-18T19:27:54.261Z,100.00
2018-10-18T19:30:23.479Z,99.89
2018-10-18T19:32:52.645Z,100.00
2018-10-18T19:35:21.854Z,100.00
2018-10-18T19:37:51.038Z,100.00
2018-10-18T19:40:20.184Z,100.00
2018-10-18T19:42:49.417Z,100.00
2018-10-18T19:45:18.737Z,100.00
2018-10-18T19:47:47.895Z,100.00
2018-10-18T19:50:17.155Z,100.00
2018-10-18T19:52:46.444Z,100.00
2018-10-18T19:55:15.467Z,100.00
2018-10-18T19:57:44.639Z,100.00
2018-10-18T20:00:13.823Z,100.00
2018-10-18T20:02:42.988Z,100.00
2018-10-18T20:05:12.166Z,100.00
2018-10-18T20:07:41.387Z,100.00
2018-10-18T20:10:10.545Z,100.00
2018-10-18T20:12:39.752Z,100.00
2018-10-18T20:15:09.194Z,100.00
2018-10-18T20:17:38.414Z,100.00
2018-10-18T20:20:09.058Z,100.00
2018-10-18T20:22:38.253Z,100.00
2018-10-18T20:25:08.823Z,100.00
2018-10-18T20:27:38.014Z,100.00
2018-10-18T20:30:09.989Z,100.00
2018-10-18T20:32:39.419Z,100.00
2018-10-18T20:35:09.130Z,100.00
2018-10-18T20:37:38.699Z,100.00
2018-10-18T20:40:10.555Z,100.00
2018-10-18T20:42:40.066Z,100.00
2018-10-18T20:45:13.654Z,100.00
2018-10-18T20:47:43.363Z,100.00
2018-10-18T20:50:13.188Z,100.00
2018-10-18T20:52:42.828Z,100.00
2018-10-18T20:55:11.983Z,100.00
2018-10-18T20:57:41.155Z,100.00
2018-10-18T21:00:10.603Z,100.00
2018-10-18T21:02:39.650Z,100.00
2018-10-18T21:05:09.074Z,100.00
2018-10-18T21:07:38.277Z,100.00
2018-10-18T21:10:07.517Z,100.00
2018-10-18T21:12:36.705Z,100.00
2018-10-18T21:15:06.136Z,100.00
2018-10-18T21:17:35.359Z,100.00
2018-10-18T21:20:04.648Z,100.00
2018-10-18T21:22:33.833Z,100.00
2018-10-18T21:25:04.315Z,100.00
2018-10-18T21:27:33.562Z,100.00
2018-10-18T21:30:02.782Z,100.00
2018-10-18T21:32:31.964Z,100.00
2018-10-18T21:35:01.129Z,100.00
2018-10-18T21:37:30.305Z,100.00
2018-10-18T21:39:59.477Z,100.00
2018-10-18T21:42:28.672Z,100.00
2018-10-18T21:44:58.062Z,100.00
2018-10-18T21:47:27.323Z,100.00
2018-10-18T21:49:56.567Z,100.00
2018-10-18T21:52:25.772Z,100.00
2018-10-18T21:54:54.957Z,100.00
2018-10-18T21:57:24.122Z,100.00
2018-10-18T21:59:54.318Z,100.00
2018-10-18T22:02:23.491Z,100.00
2018-10-18T22:04:52.656Z,100.00
2018-10-18T22:07:21.872Z,100.00
2018-10-18T22:09:51.021Z,100.00
2018-10-18T22:12:20.191Z,100.00
2018-10-18T22:14:49.383Z,100.00
2018-10-18T22:17:18.560Z,100.00
2018-10-18T22:19:47.800Z,100.00
2018-10-18T22:22:17.014Z,100.00
2018-10-18T22:24:46.177Z,100.00
2018-10-18T22:27:15.415Z,100.00
2018-10-18T22:29:44.588Z,100.00
2018-10-18T22:32:13.768Z,100.00
2018-10-18T22:34:43.275Z,100.00
2018-10-18T22:37:12.514Z,100.00
2018-10-18T22:39:41.721Z,100.00
2018-10-18T22:42:12.229Z,100.00
2018-10-18T22:44:41.406Z,100.00
2018-10-18T22:47:10.595Z,100.00
2018-10-18T22:49:39.779Z,100.00
2018-10-18T22:52:09.000Z,100.00
2018-10-18T22:54:38.214Z,100.00
2018-10-18T22:57:07.566Z,100.00
2018-10-18T22:59:36.784Z,100.00
2018-10-18T23:02:05.963Z,100.00
2018-10-18T23:04:35.123Z,100.00
2018-10-18T23:07:04.348Z,100.00
2018-10-18T23:09:33.568Z,100.00
2018-10-18T23:12:02.762Z,100.00
2018-10-18T23:14:31.970Z,100.00
2018-10-18T23:17:01.165Z,100.00
2018-10-18T23:19:30.273Z,100.00
2018-10-18T23:21:59.465Z,100.00
2018-10-18T23:24:28.703Z,100.00
2018-10-18T23:26:57.897Z,100.00
2018-10-18T23:29:27.110Z,100.00
2018-10-18T23:31:56.295Z,100.00
2018-10-18T23:34:25.492Z,100.00
2018-10-18T23:36:54.670Z,100.00
2018-10-18T23:39:23.850Z,100.00
2018-10-18T23:41:53.051Z,100.00
2018-10-18T23:44:22.241Z,100.00
2018-10-18T23:46:51.437Z,100.00
2018-10-18T23:49:20.599Z,100.00
2018-10-18T23:51:49.808Z,100.00
2018-10-18T23:54:19.080Z,100.00
2018-10-18T23:56:48.772Z,100.00
2018-10-18T23:59:17.950Z,100.00
